Iuiu, Brazil
Current Conditions -  °F | °C
As of 9:00 AM on Saturday 25 Oct 2014 (Local Time) from SBMK Reporting Station
Clear Clear  
Wind Chill: 79°   Ceiling: Unl
Heat Index: 80°   Visibility: 6mi
Dew Point: 59°   Wind: 9mph
Humidity: 51%   Direction: 50°NE
Pressure: 30.03"   Gusts: NA
Location:  14.41°S, 43.55°W
Report Text: SBMK 251200Z 05008KT 360V090 CAVOK 26/15 Q1017
Loading
Personal Weather Stations






























Interactive Weather Map
Tropical Storm Tracking
New forecast layout! Learn more

10-Day Weather Forecast

Advertisements
Track Severe Weather on mobile